createdAt,value
2022-11-05T00:00:15.072Z,74.06
2022-11-05T00:01:15.140Z,74.12
2022-11-05T00:02:15.061Z,74.15
2022-11-05T00:03:15.094Z,74.15
2022-11-05T00:04:15.139Z,74.19
2022-11-05T00:05:15.062Z,74.10
2022-11-05T00:06:15.060Z,74.12
2022-11-05T00:07:24.063Z,74.16
2022-11-05T00:08:15.062Z,74.28
2022-11-05T00:09:15.072Z,74.31
2022-11-05T00:10:17.066Z,74.35
2022-11-05T00:11:16.882Z,74.31
2022-11-05T00:12:17.089Z,74.38
2022-11-05T00:13:15.068Z,74.39
2022-11-05T00:14:15.065Z,74.48
2022-11-05T00:15:15.064Z,74.59
2022-11-05T00:16:15.066Z,74.63
2022-11-05T00:17:11.066Z,74.52
2022-11-05T00:18:11.063Z,74.59
2022-11-05T00:19:13.060Z,74.54
2022-11-05T00:20:11.064Z,74.55
2022-11-05T00:21:15.072Z,74.59
2022-11-05T00:22:15.065Z,74.66
2022-11-05T00:23:15.064Z,74.62
2022-11-05T00:24:17.254Z,74.65
2022-11-05T00:25:15.060Z,74.79
2022-11-05T00:26:11.061Z,74.68
2022-11-05T00:27:11.060Z,74.60
2022-11-05T00:28:11.060Z,74.52
2022-11-05T00:29:11.061Z,74.46
2022-11-05T00:30:11.060Z,74.42
2022-11-05T00:31:11.062Z,74.35
2022-11-05T00:32:11.060Z,74.30
2022-11-05T00:33:11.396Z,74.39
2022-11-05T00:34:11.082Z,74.39
2022-11-05T00:35:11.084Z,74.36
2022-11-05T00:36:11.062Z,74.33
2022-11-05T00:37:11.062Z,74.42
2022-11-05T00:38:11.062Z,74.46
2022-11-05T00:39:11.062Z,74.40
2022-11-05T00:40:11.063Z,74.28
2022-11-05T00:41:11.060Z,74.33
2022-11-05T00:42:15.072Z,74.31
2022-11-05T00:43:15.070Z,74.38
2022-11-05T00:44:15.067Z,74.34
2022-11-05T00:45:11.064Z,74.29
2022-11-05T00:46:11.067Z,74.32
2022-11-05T00:47:15.064Z,74.27
2022-11-05T00:48:15.062Z,74.27
2022-11-05T00:49:15.063Z,74.23
2022-11-05T00:50:11.068Z,74.18
2022-11-05T00:51:11.066Z,74.25
2022-11-05T00:52:15.059Z,74.36
2022-11-05T00:53:11.427Z,74.34
2022-11-05T00:54:11.064Z,74.28
2022-11-05T00:55:11.061Z,74.31
2022-11-05T00:56:11.065Z,74.33
2022-11-05T00:57:11.065Z,74.39
2022-11-05T00:58:20.066Z,74.43
2022-11-05T00:59:11.065Z,74.39
2022-11-05T01:00:11.071Z,74.33
2022-11-05T01:01:11.087Z,74.34
2022-11-05T01:02:11.185Z,74.39
2022-11-05T01:03:14.523Z,74.37
2022-11-05T01:04:11.063Z,74.27
2022-11-05T01:05:11.062Z,74.26
2022-11-05T01:06:14.072Z,74.17
2022-11-05T01:07:11.068Z,74.20
2022-11-05T01:08:11.064Z,74.28
2022-11-05T01:09:11.070Z,74.22
2022-11-05T01:10:11.066Z,74.12
2022-11-05T01:11:15.063Z,74.14
2022-11-05T01:12:11.067Z,74.07
2022-11-05T01:13:13.226Z,74.03
2022-11-05T01:14:11.063Z,74.01
2022-11-05T01:15:11.066Z,73.96
2022-11-05T01:16:11.073Z,73.93
2022-11-05T01:17:11.063Z,73.79
2022-11-05T01:18:11.069Z,73.69
2022-11-05T01:19:11.071Z,73.72
2022-11-05T01:20:11.066Z,73.68
2022-11-05T01:21:14.062Z,73.64
2022-11-05T01:22:11.063Z,73.58
2022-11-05T01:23:13.740Z,73.51
2022-11-05T01:24:12.057Z,73.46
2022-11-05T01:25:11.058Z,73.48
2022-11-05T01:26:11.061Z,73.41
2022-11-05T01:27:11.058Z,73.41
2022-11-05T01:28:11.060Z,73.40
2022-11-05T01:29:12.141Z,73.40
2022-11-05T01:30:11.061Z,73.33
2022-11-05T01:31:11.061Z,73.37
2022-11-05T01:32:11.068Z,73.58
2022-11-05T01:33:11.381Z,73.54
2022-11-05T01:34:11.055Z,73.51
2022-11-05T01:35:12.067Z,73.53
2022-11-05T01:36:11.061Z,73.34
2022-11-05T01:37:11.056Z,73.37
2022-11-05T01:38:11.062Z,73.41
2022-11-05T01:39:11.063Z,73.43
2022-11-05T01:40:15.063Z,73.48
2022-11-05T01:41:11.062Z,73.53
2022-11-05T01:42:18.058Z,73.43
2022-11-05T01:43:15.060Z,73.37
2022-11-05T01:44:19.061Z,73.34
2022-11-05T01:45:18.075Z,73.28
2022-11-05T01:46:11.060Z,73.16
2022-11-05T01:47:19.056Z,73.13
2022-11-05T01:48:17.061Z,73.17
2022-11-05T01:49:17.071Z,73.09
2022-11-05T01:50:19.063Z,73.02
2022-11-05T01:51:14.059Z,73.30
2022-11-05T01:52:11.061Z,73.33
2022-11-05T01:53:18.064Z,73.44
2022-11-05T01:54:13.059Z,73.31
2022-11-05T01:55:11.062Z,73.24
2022-11-05T01:56:20.062Z,73.52
2022-11-05T01:57:12.063Z,73.53
2022-11-05T01:58:13.067Z,73.47
2022-11-05T01:59:18.077Z,73.38
2022-11-05T02:00:11.064Z,73.39
2022-11-05T02:01:11.059Z,73.49
2022-11-05T02:02:11.221Z,73.54
2022-11-05T02:03:11.323Z,73.82
2022-11-05T02:04:20.060Z,73.93
2022-11-05T02:05:11.067Z,73.81
2022-11-05T02:06:13.074Z,73.83
2022-11-05T02:07:11.077Z,73.75
2022-11-05T02:08:15.061Z,73.83
2022-11-05T02:09:21.062Z,73.88
2022-11-05T02:10:11.068Z,74.02
2022-11-05T02:11:12.066Z,74.12
2022-11-05T02:12:11.061Z,74.15
2022-11-05T02:13:11.361Z,74.16
2022-11-05T02:14:11.063Z,74.15
2022-11-05T02:15:12.062Z,74.14
2022-11-05T02:16:21.064Z,74.04
2022-11-05T02:17:20.072Z,74.10
2022-11-05T02:18:19.064Z,74.13
2022-11-05T02:19:23.083Z,74.06
2022-11-05T02:20:19.064Z,74.03
2022-11-05T02:21:19.061Z,73.89
2022-11-05T02:22:19.063Z,73.83
2022-11-05T02:23:21.089Z,73.71
2022-11-05T02:24:19.063Z,73.57
2022-11-05T02:25:19.061Z,73.72
2022-11-05T02:26:21.063Z,73.82
2022-11-05T02:27:20.066Z,73.70
2022-11-05T02:28:21.093Z,73.75
2022-11-05T02:29:21.063Z,73.74
2022-11-05T02:30:19.060Z,73.67
2022-11-05T02:31:21.083Z,73.58
2022-11-05T02:32:21.091Z,73.75
2022-11-05T02:33:19.066Z,73.73
2022-11-05T02:34:21.075Z,73.71
2022-11-05T02:35:19.063Z,73.73
2022-11-05T02:36:21.077Z,73.69
2022-11-05T02:37:21.065Z,73.73
2022-11-05T02:38:19.062Z,73.74
2022-11-05T02:39:19.078Z,73.75
2022-11-05T02:40:21.083Z,73.73
2022-11-05T02:41:19.060Z,73.76
2022-11-05T02:42:19.060Z,73.91
2022-11-05T02:43:19.068Z,74.03
2022-11-05T02:44:19.081Z,74.06
2022-11-05T02:45:21.071Z,74.21
2022-11-05T02:46:21.062Z,74.28
2022-11-05T02:47:19.060Z,74.29
2022-11-05T02:48:19.066Z,74.18
2022-11-05T02:49:21.100Z,74.28
2022-11-05T02:50:19.071Z,74.16
2022-11-05T02:51:19.063Z,74.50
2022-11-05T02:52:21.067Z,74.46
2022-11-05T02:53:19.081Z,74.51
2022-11-05T02:54:19.073Z,74.42
2022-11-05T02:55:21.098Z,74.47
2022-11-05T02:56:21.067Z,74.43
2022-11-05T02:57:11.061Z,74.41
2022-11-05T02:58:11.067Z,74.38
2022-11-05T02:59:11.065Z,74.46
2022-11-05T03:00:19.066Z,74.38
2022-11-05T03:01:12.065Z,74.73
2022-11-05T03:02:11.256Z,74.72
2022-11-05T03:03:17.064Z,74.81
2022-11-05T03:04:11.078Z,74.95
2022-11-05T03:05:11.071Z,75.16
2022-11-05T03:06:19.062Z,75.07
2022-11-05T03:07:19.068Z,75.15
2022-11-05T03:08:19.068Z,75.06
2022-11-05T03:09:19.080Z,75.04
2022-11-05T03:10:19.068Z,75.18
2022-11-05T03:11:15.063Z,75.15
2022-11-05T03:12:21.096Z,75.25
2022-11-05T03:13:16.067Z,75.43
2022-11-05T03:14:21.066Z,75.44
2022-11-05T03:15:19.062Z,75.43
2022-11-05T03:16:22.062Z,75.50
2022-11-05T03:17:21.066Z,75.48
2022-11-05T03:18:21.070Z,75.54
2022-11-05T03:19:19.074Z,75.83
2022-11-05T03:20:19.068Z,75.81
2022-11-05T03:21:19.063Z,75.76
2022-11-05T03:22:14.065Z,75.96
2022-11-05T03:23:19.072Z,76.05
2022-11-05T03:24:16.065Z,76.12
2022-11-05T03:25:15.062Z,76.23
2022-11-05T03:26:23.066Z,76.26
2022-11-05T03:27:19.062Z,76.54
2022-11-05T03:28:11.070Z,76.60
2022-11-05T03:29:19.062Z,76.68
2022-11-05T03:30:12.063Z,76.83
2022-11-05T03:31:12.064Z,76.88
2022-11-05T03:32:11.066Z,77.11
2022-11-05T03:33:17.064Z,77.18
2022-11-05T03:34:11.065Z,77.33
2022-11-05T03:35:16.065Z,77.50
2022-11-05T03:36:16.063Z,77.46
2022-11-05T03:37:11.067Z,77.56
2022-11-05T03:38:20.072Z,77.66
2022-11-05T03:39:15.064Z,77.81
2022-11-05T03:40:11.067Z,77.79
2022-11-05T03:41:14.068Z,77.73
2022-11-05T03:42:12.072Z,77.83
2022-11-05T03:43:11.209Z,77.93
2022-11-05T03:44:12.062Z,78.02
2022-11-05T03:45:18.073Z,77.90
2022-11-05T03:46:16.065Z,77.86
2022-11-05T03:47:17.067Z,77.98
2022-11-05T03:48:12.143Z,77.87
2022-11-05T03:49:12.072Z,77.71
2022-11-05T03:50:19.063Z,77.78
2022-11-05T03:51:17.062Z,77.76
2022-11-05T03:52:16.065Z,77.67
2022-11-05T03:53:16.074Z,77.71
2022-11-05T03:54:11.067Z,77.73
2022-11-05T03:55:11.064Z,77.68
2022-11-05T03:56:23.075Z,77.56
2022-11-05T03:57:19.075Z,77.54
2022-11-05T03:58:11.067Z,77.78
2022-11-05T03:59:11.066Z,77.74
2022-11-05T04:00:11.067Z,77.74
2022-11-05T04:01:11.066Z,77.75
2022-11-05T04:02:11.248Z,77.75
2022-11-05T04:03:11.375Z,77.79
2022-11-05T04:04:11.073Z,78.04
2022-11-05T04:05:11.063Z,78.07
2022-11-05T04:06:15.068Z,78.09
2022-11-05T04:07:15.079Z,78.12
2022-11-05T04:08:15.070Z,78.19
2022-11-05T04:09:15.096Z,78.36
2022-11-05T04:10:15.066Z,78.31
2022-11-05T04:11:15.066Z,78.23
2022-11-05T04:12:15.081Z,78.33
2022-11-05T04:13:17.070Z,78.38
2022-11-05T04:14:11.065Z,78.37
2022-11-05T04:15:11.068Z,78.67
2022-11-05T04:16:15.082Z,78.52
2022-11-05T04:17:11.068Z,78.62
2022-11-05T04:18:11.067Z,78.67
2022-11-05T04:19:11.065Z,78.60
2022-11-05T04:20:15.068Z,78.52
2022-11-05T04:21:15.057Z,78.75
2022-11-05T04:22:15.058Z,78.71
2022-11-05T04:23:15.070Z,78.72
2022-11-05T04:24:13.059Z,78.87
2022-11-05T04:25:11.057Z,78.68
2022-11-05T04:26:11.058Z,78.90
2022-11-05T04:27:11.064Z,79.05
2022-11-05T04:28:11.056Z,79.08
2022-11-05T04:29:15.059Z,79.13
2022-11-05T04:30:15.071Z,79.04
2022-11-05T04:31:11.060Z,78.98
2022-11-05T04:32:11.056Z,79.11
2022-11-05T04:33:14.405Z,79.21
2022-11-05T04:34:11.059Z,79.43
2022-11-05T04:35:11.057Z,79.43
2022-11-05T04:36:11.060Z,79.60
2022-11-05T04:37:11.069Z,79.61
2022-11-05T04:38:11.056Z,79.48
2022-11-05T04:39:11.060Z,79.71
2022-11-05T04:40:11.066Z,79.54
2022-11-05T04:41:15.060Z,79.38
2022-11-05T04:42:11.059Z,79.56
2022-11-05T04:43:15.059Z,79.59
2022-11-05T04:44:11.060Z,79.49
2022-11-05T04:45:11.058Z,79.62
2022-11-05T04:46:11.060Z,79.64
2022-11-05T04:47:11.067Z,79.91
2022-11-05T04:48:11.056Z,79.99
2022-11-05T04:49:11.065Z,80.09
2022-11-05T04:50:11.068Z,80.23
2022-11-05T04:51:11.064Z,80.33
2022-11-05T04:52:11.062Z,80.51
2022-11-05T04:53:11.369Z,80.43
2022-11-05T04:54:11.061Z,80.39
2022-11-05T04:55:11.059Z,80.69
2022-11-05T04:56:15.063Z,80.58
2022-11-05T04:57:11.061Z,80.28
2022-11-05T04:58:11.059Z,80.44
2022-11-05T04:59:11.060Z,80.68
2022-11-05T05:00:11.069Z,80.74
2022-11-05T05:01:17.220Z,80.74
2022-11-05T05:02:11.151Z,81.00
2022-11-05T05:03:11.335Z,81.26
2022-11-05T05:04:11.061Z,81.23
2022-11-05T05:05:11.059Z,81.15
2022-11-05T05:06:11.062Z,81.59
2022-11-05T05:07:11.062Z,81.90
2022-11-05T05:08:11.058Z,81.99
2022-11-05T05:09:11.060Z,81.81
2022-11-05T05:10:11.068Z,81.70
2022-11-05T05:11:12.060Z,81.76
2022-11-05T05:12:11.064Z,82.03
2022-11-05T05:13:11.407Z,82.09
2022-11-05T05:14:11.060Z,82.28
2022-11-05T05:15:11.063Z,82.34
2022-11-05T05:16:15.071Z,82.57
2022-11-05T05:17:11.065Z,82.67
2022-11-05T05:18:11.061Z,82.92
2022-11-05T05:19:11.063Z,82.84
2022-11-05T05:20:15.064Z,83.15
2022-11-05T05:21:15.061Z,82.99
2022-11-05T05:22:11.056Z,83.09
2022-11-05T05:23:11.280Z,83.16
2022-11-05T05:24:15.058Z,83.24
2022-11-05T05:25:11.056Z,83.20
2022-11-05T05:26:11.064Z,83.38
2022-11-05T05:27:11.061Z,83.40
2022-11-05T05:28:11.056Z,83.36
2022-11-05T05:29:11.059Z,83.31
2022-11-05T05:30:11.061Z,83.37
2022-11-05T05:31:11.060Z,83.52
2022-11-05T05:32:11.064Z,83.56
2022-11-05T05:33:11.382Z,83.50
2022-11-05T05:34:12.058Z,83.77
2022-11-05T05:35:11.063Z,83.94
2022-11-05T05:36:11.569Z,83.94
2022-11-05T05:37:11.060Z,83.83
2022-11-05T05:38:11.060Z,84.02
2022-11-05T05:39:11.296Z,84.32
2022-11-05T05:40:11.061Z,84.52
2022-11-05T05:41:11.062Z,84.27
2022-11-05T05:42:11.064Z,84.53
2022-11-05T05:43:11.232Z,84.87
2022-11-05T05:44:11.063Z,84.81
2022-11-05T05:45:11.066Z,84.54
2022-11-05T05:46:11.060Z,84.45
2022-11-05T05:47:11.061Z,84.21
2022-11-05T05:48:11.069Z,84.50
2022-11-05T05:49:12.453Z,84.46
2022-11-05T05:50:11.063Z,84.23
2022-11-05T05:51:11.074Z,84.17
2022-11-05T05:52:11.063Z,84.16
2022-11-05T05:53:11.284Z,84.20
2022-11-05T05:54:11.065Z,84.25
2022-11-05T05:55:11.064Z,84.20
2022-11-05T05:56:11.062Z,84.09
2022-11-05T05:57:11.063Z,84.10
2022-11-05T05:58:11.065Z,84.35
2022-11-05T05:59:11.064Z,84.38
2022-11-05T06:00:11.061Z,84.44
2022-11-05T06:01:18.556Z,84.35
2022-11-05T06:02:13.189Z,84.39
2022-11-05T06:03:11.329Z,84.37
2022-11-05T06:04:11.071Z,84.37
2022-11-05T06:05:11.065Z,84.24
2022-11-05T06:06:14.059Z,84.48
2022-11-05T06:07:11.068Z,84.58
2022-11-05T06:08:11.066Z,84.67
2022-11-05T06:09:11.062Z,84.68
2022-11-05T06:10:11.066Z,84.77
2022-11-05T06:11:11.142Z,85.03
2022-11-05T06:12:11.064Z,84.92
2022-11-05T06:13:11.461Z,84.73
2022-11-05T06:14:14.079Z,84.86
2022-11-05T06:15:11.064Z,84.76
2022-11-05T06:16:11.067Z,84.82
2022-11-05T06:17:11.072Z,84.81
2022-11-05T06:18:11.064Z,85.27
2022-11-05T06:19:11.065Z,85.48
2022-11-05T06:20:11.070Z,85.56
2022-11-05T06:21:11.061Z,85.56
2022-11-05T06:22:11.059Z,85.52
2022-11-05T06:23:11.372Z,85.45
2022-11-05T06:24:11.061Z,85.41
2022-11-05T06:25:11.056Z,85.41
2022-11-05T06:26:11.059Z,85.41
2022-11-05T06:27:11.057Z,85.58
2022-11-05T06:28:11.059Z,85.76
2022-11-05T06:29:11.058Z,85.92
2022-11-05T06:30:11.057Z,86.19
2022-11-05T06:31:11.057Z,86.01
2022-11-05T06:32:11.060Z,85.79
2022-11-05T06:33:11.291Z,85.67
2022-11-05T06:34:11.055Z,86.29
2022-11-05T06:35:11.062Z,86.39
2022-11-05T06:36:13.059Z,86.42
2022-11-05T06:37:11.059Z,86.40
2022-11-05T06:38:11.055Z,86.23
2022-11-05T06:39:13.056Z,86.03
2022-11-05T06:40:11.054Z,86.01
2022-11-05T06:41:11.082Z,86.10
2022-11-05T06:42:18.445Z,85.98
2022-11-05T06:43:13.590Z,85.97
2022-11-05T06:44:11.057Z,86.10
2022-11-05T06:45:11.063Z,86.24
2022-11-05T06:46:11.067Z,86.54
2022-11-05T06:47:11.052Z,86.53
2022-11-05T06:48:11.064Z,86.47
2022-11-05T06:49:11.058Z,86.51
2022-11-05T06:50:11.053Z,86.68
2022-11-05T06:51:11.059Z,86.85
2022-11-05T06:52:11.059Z,86.82
2022-11-05T06:53:11.444Z,86.50
2022-11-05T06:54:11.061Z,86.55
2022-11-05T06:55:11.058Z,86.68
2022-11-05T06:56:11.059Z,86.73
2022-11-05T06:57:11.056Z,86.75
2022-11-05T06:58:11.059Z,87.08
2022-11-05T06:59:11.061Z,87.02
2022-11-05T07:00:11.093Z,86.96
2022-11-05T07:01:11.170Z,86.91
2022-11-05T07:02:11.146Z,86.82
2022-11-05T07:03:11.350Z,87.01
2022-11-05T07:04:11.061Z,87.05
2022-11-05T07:05:11.058Z,87.00
2022-11-05T07:06:11.059Z,87.00
2022-11-05T07:07:11.063Z,87.13
2022-11-05T07:08:11.058Z,87.13
2022-11-05T07:09:11.058Z,87.15
2022-11-05T07:10:12.059Z,87.08
2022-11-05T07:11:11.058Z,87.11
2022-11-05T07:12:11.063Z,87.40
2022-11-05T07:13:11.448Z,87.44
2022-11-05T07:14:11.056Z,87.04
2022-11-05T07:15:11.062Z,87.09
2022-11-05T07:16:11.059Z,87.02
2022-11-05T07:17:11.056Z,87.03
2022-11-05T07:18:11.063Z,87.01
2022-11-05T07:19:11.064Z,87.05
2022-11-05T07:20:11.056Z,86.95
2022-11-05T07:21:11.064Z,86.82
2022-11-05T07:22:11.061Z,86.73
2022-11-05T07:23:12.474Z,86.77
2022-11-05T07:24:11.067Z,86.91
2022-11-05T07:25:11.064Z,86.92
2022-11-05T07:26:11.060Z,87.05
2022-11-05T07:27:11.061Z,87.46
2022-11-05T07:28:11.062Z,87.53
2022-11-05T07:29:11.061Z,87.73
2022-11-05T07:30:11.061Z,87.99
2022-11-05T07:31:11.063Z,88.19
2022-11-05T07:32:11.064Z,88.01
2022-11-05T07:33:11.297Z,87.78
2022-11-05T07:34:11.063Z,88.08
2022-11-05T07:35:11.060Z,88.16
2022-11-05T07:36:11.062Z,88.09
2022-11-05T07:37:11.064Z,87.95
2022-11-05T07:38:11.062Z,88.08
2022-11-05T07:39:11.077Z,87.90
2022-11-05T07:40:11.071Z,87.95
2022-11-05T07:41:11.060Z,88.03
2022-11-05T07:42:13.063Z,87.93
2022-11-05T07:43:11.305Z,87.90
2022-11-05T07:44:11.061Z,87.85
2022-11-05T07:45:11.072Z,87.94
2022-11-05T07:46:13.848Z,87.86
2022-11-05T07:47:11.062Z,87.94
2022-11-05T07:48:11.063Z,88.15
2022-11-05T07:49:11.073Z,88.24
2022-11-05T07:50:11.066Z,88.32
2022-11-05T07:51:11.067Z,88.38
2022-11-05T07:52:11.070Z,88.42
2022-11-05T07:53:12.390Z,88.47
2022-11-05T07:54:11.065Z,88.39
2022-11-05T07:55:11.072Z,88.43
2022-11-05T07:56:11.064Z,88.61
2022-11-05T07:57:11.065Z,88.47
2022-11-05T07:58:11.072Z,88.70
2022-11-05T07:59:11.065Z,88.71
2022-11-05T08:00:11.068Z,88.57
2022-11-05T08:01:11.175Z,88.70
2022-11-05T08:02:11.269Z,88.62
2022-11-05T08:03:13.708Z,88.72
2022-11-05T08:04:11.069Z,88.53
2022-11-05T08:05:11.064Z,88.43
2022-11-05T08:06:11.067Z,88.45
2022-11-05T08:07:11.068Z,88.46
2022-11-05T08:08:11.065Z,88.45
2022-11-05T08:09:11.066Z,88.85
2022-11-05T08:10:11.066Z,89.04
2022-11-05T08:11:11.068Z,89.12
2022-11-05T08:12:11.068Z,89.13
2022-11-05T08:13:11.544Z,88.93
2022-11-05T08:14:11.067Z,88.87
2022-11-05T08:15:11.067Z,88.86
2022-11-05T08:16:11.068Z,88.91
2022-11-05T08:17:15.921Z,88.99
2022-11-05T08:18:17.856Z,89.04
2022-11-05T08:19:11.072Z,89.44
2022-11-05T08:20:11.068Z,89.34
2022-11-05T08:21:11.065Z,89.40
2022-11-05T08:22:11.071Z,89.57
2022-11-05T08:23:11.393Z,89.61
2022-11-05T08:24:11.065Z,89.29
2022-11-05T08:25:11.071Z,89.26
2022-11-05T08:26:11.061Z,89.19
2022-11-05T08:27:11.067Z,89.07
2022-11-05T08:28:12.077Z,88.97
2022-11-05T08:29:11.065Z,89.00
2022-11-05T08:30:11.065Z,89.14
2022-11-05T08:31:11.076Z,89.19
2022-11-05T08:32:11.065Z,89.18
2022-11-05T08:33:11.538Z,89.42
2022-11-05T08:34:11.071Z,89.46
2022-11-05T08:35:11.065Z,89.62
2022-11-05T08:36:11.061Z,89.59
2022-11-05T08:37:11.067Z,89.58
2022-11-05T08:38:11.066Z,89.48
2022-11-05T08:39:16.700Z,89.40
2022-11-05T08:40:13.145Z,89.39
2022-11-05T08:41:11.064Z,89.37
2022-11-05T08:42:11.061Z,89.47
2022-11-05T08:43:11.355Z,89.39
2022-11-05T08:44:11.064Z,89.12
2022-11-05T08:45:11.060Z,89.44
2022-11-05T08:46:11.063Z,89.23
2022-11-05T08:47:11.067Z,89.12
2022-11-05T08:48:11.064Z,89.02
2022-11-05T08:49:11.080Z,89.05
2022-11-05T08:50:11.071Z,88.83
2022-11-05T08:51:11.065Z,88.96
2022-11-05T08:52:11.067Z,89.23
2022-11-05T08:53:11.424Z,89.26
2022-11-05T08:54:11.062Z,88.97
2022-11-05T08:55:11.064Z,88.72
2022-11-05T08:56:11.090Z,88.75
2022-11-05T08:57:11.065Z,88.91
2022-11-05T08:58:12.072Z,89.20
2022-11-05T08:59:11.074Z,89.07
2022-11-05T09:00:11.071Z,89.07
2022-11-05T09:01:11.092Z,89.20
2022-11-05T09:02:11.209Z,89.07
2022-11-05T09:03:11.435Z,89.00
2022-11-05T09:04:11.066Z,88.96
2022-11-05T09:05:11.077Z,88.80
2022-11-05T09:06:11.070Z,88.83
2022-11-05T09:07:11.068Z,88.92
2022-11-05T09:08:15.075Z,88.89
2022-11-05T09:09:11.066Z,89.23
2022-11-05T09:10:11.062Z,89.30
2022-11-05T09:11:11.069Z,89.09
2022-11-05T09:12:12.915Z,88.76
2022-11-05T09:13:17.733Z,88.70
2022-11-05T09:14:13.096Z,88.73
2022-11-05T09:15:11.071Z,88.84
2022-11-05T09:16:18.070Z,88.61
2022-11-05T09:17:18.067Z,88.48
2022-11-05T09:18:12.071Z,88.36
2022-11-05T09:19:11.068Z,88.46
2022-11-05T09:20:11.070Z,88.48
2022-11-05T09:21:11.058Z,88.39
2022-11-05T09:22:11.061Z,88.51
2022-11-05T09:23:11.347Z,88.66
2022-11-05T09:24:11.058Z,88.73
2022-11-05T09:25:11.065Z,88.71
2022-11-05T09:26:11.061Z,88.47
2022-11-05T09:27:11.059Z,88.42
2022-11-05T09:28:14.776Z,88.46
2022-11-05T09:29:14.388Z,88.29
2022-11-05T09:30:11.068Z,88.19
2022-11-05T09:31:11.070Z,88.23
2022-11-05T09:32:11.061Z,87.96
2022-11-05T09:33:11.389Z,88.07
2022-11-05T09:34:11.062Z,88.11
2022-11-05T09:35:11.062Z,87.96
2022-11-05T09:36:11.058Z,88.07
2022-11-05T09:37:11.063Z,88.22
2022-11-05T09:38:11.060Z,88.11
2022-11-05T09:39:11.060Z,88.19
2022-11-05T09:40:15.062Z,88.23
2022-11-05T09:41:18.063Z,87.85
2022-11-05T09:42:15.064Z,87.90
2022-11-05T09:43:16.064Z,87.77
2022-11-05T09:44:19.066Z,87.80
2022-11-05T09:45:16.062Z,87.96
2022-11-05T09:46:19.060Z,87.54
2022-11-05T09:47:18.064Z,87.70
2022-11-05T09:48:14.064Z,87.70
2022-11-05T09:49:18.067Z,87.71
2022-11-05T09:50:20.060Z,87.52
2022-11-05T09:51:17.995Z,87.55
2022-11-05T09:52:21.332Z,87.43
2022-11-05T09:53:16.070Z,87.34
2022-11-05T09:54:12.069Z,87.33
2022-11-05T09:55:19.068Z,87.56
2022-11-05T09:56:19.074Z,87.46
2022-11-05T09:57:17.070Z,87.43
2022-11-05T09:58:19.954Z,87.71
2022-11-05T09:59:19.060Z,87.55
2022-11-05T10:00:14.059Z,87.29
2022-11-05T10:01:15.161Z,87.34
2022-11-05T10:02:19.158Z,87.37
2022-11-05T10:03:15.061Z,87.10
2022-11-05T10:04:16.070Z,86.97
2022-11-05T10:05:11.128Z,86.87
2022-11-05T10:06:13.086Z,86.78
2022-11-05T10:07:14.064Z,86.90
2022-11-05T10:08:19.064Z,86.77
2022-11-05T10:09:22.071Z,86.77
2022-11-05T10:10:15.073Z,86.72
2022-11-05T10:11:16.062Z,86.64
2022-11-05T10:12:22.060Z,86.61
2022-11-05T10:13:25.065Z,86.81
2022-11-05T10:14:19.068Z,86.86
2022-11-05T10:15:20.093Z,86.95
2022-11-05T10:16:19.067Z,86.78
2022-11-05T10:17:20.063Z,86.75
2022-11-05T10:18:18.065Z,86.67
2022-11-05T10:19:20.064Z,86.54
2022-11-05T10:20:16.068Z,86.50
2022-11-05T10:21:27.796Z,86.64
2022-11-05T10:22:17.175Z,86.46
2022-11-05T10:23:15.135Z,86.54
2022-11-05T10:24:16.067Z,86.50
2022-11-05T10:25:18.062Z,86.62
2022-11-05T10:26:14.068Z,86.62
2022-11-05T10:27:15.058Z,86.69
2022-11-05T10:28:16.064Z,86.37
2022-11-05T10:29:14.063Z,86.40
2022-11-05T10:30:13.061Z,86.28
2022-11-05T10:31:16.057Z,86.11
2022-11-05T10:32:15.060Z,86.00
2022-11-05T10:33:11.343Z,85.95
2022-11-05T10:34:11.064Z,85.76
2022-11-05T10:35:13.062Z,85.59
2022-11-05T10:36:17.068Z,85.49
2022-11-05T10:37:11.064Z,85.78
2022-11-05T10:38:14.065Z,85.91
2022-11-05T10:39:17.061Z,85.98
2022-11-05T10:40:16.070Z,86.00
2022-11-05T10:41:19.062Z,86.11
2022-11-05T10:42:19.067Z,86.21
2022-11-05T10:43:21.063Z,86.12
2022-11-05T10:44:19.204Z,86.02
2022-11-05T10:45:22.073Z,86.12
2022-11-05T10:46:19.063Z,85.90
2022-11-05T10:47:19.061Z,85.85
2022-11-05T10:48:19.065Z,85.74
2022-11-05T10:49:22.064Z,85.69
2022-11-05T10:50:16.073Z,85.62
2022-11-05T10:51:11.074Z,85.54
2022-11-05T10:52:22.063Z,85.49
2022-11-05T10:53:16.065Z,85.47
2022-11-05T10:54:19.073Z,85.47
2022-11-05T10:55:22.063Z,85.41
2022-11-05T10:56:19.074Z,85.34
2022-11-05T10:57:19.064Z,85.77
2022-11-05T10:58:15.066Z,85.61
2022-11-05T10:59:19.071Z,85.76
2022-11-05T11:00:19.177Z,85.66
2022-11-05T11:01:12.107Z,85.55
2022-11-05T11:02:19.154Z,85.51
2022-11-05T11:03:19.064Z,85.48
2022-11-05T11:04:22.073Z,85.53
2022-11-05T11:05:11.074Z,85.48
2022-11-05T11:06:19.070Z,85.42
2022-11-05T11:07:21.062Z,85.28
2022-11-05T11:08:22.066Z,85.45
2022-11-05T11:09:19.073Z,85.49
2022-11-05T11:10:19.067Z,85.56
2022-11-05T11:11:17.065Z,85.76
2022-11-05T11:12:16.066Z,85.90
2022-11-05T11:13:19.065Z,85.76
2022-11-05T11:14:20.079Z,85.95
2022-11-05T11:15:15.067Z,85.82
2022-11-05T11:16:16.095Z,85.84
2022-11-05T11:17:19.071Z,85.71
2022-11-05T11:18:19.075Z,85.74
2022-11-05T11:19:19.068Z,85.85
2022-11-05T11:20:25.066Z,85.71
2022-11-05T11:21:16.059Z,85.81
2022-11-05T11:22:17.065Z,85.99
2022-11-05T11:23:12.414Z,86.06
2022-11-05T11:24:20.057Z,86.09
2022-11-05T11:25:19.059Z,86.23
2022-11-05T11:26:11.067Z,86.10
2022-11-05T11:27:13.061Z,86.21
2022-11-05T11:28:17.060Z,86.19
2022-11-05T11:29:19.064Z,86.33
2022-11-05T11:30:17.131Z,86.32
2022-11-05T11:31:21.083Z,86.60
2022-11-05T11:32:15.063Z,86.59
2022-11-05T11:33:11.350Z,86.74
2022-11-05T11:34:21.065Z,86.62
2022-11-05T11:35:19.075Z,86.84
2022-11-05T11:36:11.064Z,87.14
2022-11-05T11:37:19.051Z,87.07
2022-11-05T11:38:16.092Z,87.18
2022-11-05T11:39:19.065Z,87.17
2022-11-05T11:40:19.060Z,87.09
2022-11-05T11:41:19.068Z,87.04
2022-11-05T11:42:17.061Z,86.95
2022-11-05T11:43:19.063Z,86.92
2022-11-05T11:44:19.063Z,87.29
2022-11-05T11:45:19.061Z,87.27
2022-11-05T11:46:15.267Z,87.23
2022-11-05T11:47:15.065Z,87.03
2022-11-05T11:48:17.064Z,86.85
2022-11-05T11:49:19.066Z,86.81
2022-11-05T11:50:19.063Z,86.77
2022-11-05T11:51:18.070Z,86.66
2022-11-05T11:52:16.065Z,86.78
2022-11-05T11:53:19.062Z,86.72
2022-11-05T11:54:19.066Z,86.58
2022-11-05T11:55:20.090Z,86.60
2022-11-05T11:56:17.070Z,86.59
2022-11-05T11:57:19.065Z,86.57
2022-11-05T11:58:11.065Z,86.60
2022-11-05T11:59:30.648Z,86.76
2022-11-05T12:00:13.168Z,86.84
2022-11-05T12:01:19.120Z,86.82
2022-11-05T12:02:19.229Z,86.91
2022-11-05T12:03:19.596Z,86.84
2022-11-05T12:04:19.062Z,87.10
2022-11-05T12:05:21.072Z,87.07
2022-11-05T12:06:19.066Z,87.06
2022-11-05T12:07:19.063Z,86.86
2022-11-05T12:08:19.061Z,86.85
2022-11-05T12:09:19.065Z,86.70
2022-11-05T12:10:19.072Z,86.81
2022-11-05T12:11:19.066Z,86.90
2022-11-05T12:12:13.064Z,86.87
2022-11-05T12:13:21.068Z,86.70
2022-11-05T12:14:19.068Z,86.59
2022-11-05T12:15:19.073Z,86.83
2022-11-05T12:16:19.064Z,86.98
2022-11-05T12:17:19.062Z,87.10
2022-11-05T12:18:21.072Z,87.09
2022-11-05T12:19:19.073Z,86.92
2022-11-05T12:20:21.066Z,87.07
2022-11-05T12:21:34.579Z,86.98
2022-11-05T12:22:23.091Z,87.20
2022-11-05T12:23:19.060Z,87.14
2022-11-05T12:24:19.067Z,87.00
2022-11-05T12:25:18.062Z,86.90
2022-11-05T12:26:21.060Z,87.41
2022-11-05T12:27:21.056Z,87.30
2022-11-05T12:28:19.062Z,87.69
2022-11-05T12:29:19.628Z,87.48
2022-11-05T12:30:16.066Z,87.39
2022-11-05T12:31:19.060Z,87.20
2022-11-05T12:32:19.151Z,87.28
2022-11-05T12:33:21.065Z,87.07
2022-11-05T12:34:21.072Z,87.02
2022-11-05T12:35:21.063Z,87.00
2022-11-05T12:36:18.060Z,87.17
2022-11-05T12:37:19.062Z,87.03
2022-11-05T12:38:19.061Z,87.20
2022-11-05T12:39:19.071Z,87.15
2022-11-05T12:40:19.061Z,87.30
2022-11-05T12:41:19.065Z,87.28
2022-11-05T12:42:18.068Z,87.15
2022-11-05T12:43:21.067Z,87.29
2022-11-05T12:44:19.071Z,87.27
2022-11-05T12:45:21.063Z,87.21
2022-11-05T12:46:19.063Z,87.32
2022-11-05T12:47:19.068Z,87.20
2022-11-05T12:48:22.038Z,87.28
2022-11-05T12:49:23.101Z,87.30
2022-11-05T12:50:19.062Z,87.31
2022-11-05T12:51:19.061Z,87.18
2022-11-05T12:52:19.073Z,87.32